Time;durP1;ratioP1;P1;durP2;ratioP2;P2;SDS_P1;SDS_P2;PMS_P1;PMS_P2;Temp;Humidity;BMP_temperature;BMP_pressure;BME280_temperature;BME280_humidity;BME280_pressure;Samples;Min_cycle;Max_cycle;Signal;HPM_P1;HPM_P2
2021/07/30 00:02:14;;;;;;;11.73;6.65;;;;;;;15.58;85.86;97781.00;1709162;84;20875;-78
2021/07/30 00:04:40;;;;;;;14.55;7.67;;;;;;;15.60;85.43;97781.48;1709080;83;20883;-73
2021/07/30 00:07:05;;;;;;;14.65;6.95;;;;;;;15.59;85.06;97779.07;1685074;84;20856;-73
2021/07/30 00:09:31;;;;;;;10.50;7.33;;;;;;;15.49;86.03;97780.98;1708964;83;21055;-72
2021/07/30 00:11:57;;;;;;;18.42;9.95;;;;;;;15.45;86.20;97781.34;1708502;83;20887;-73
2021/07/30 00:14:23;;;;;;;15.40;7.92;;;;;;;15.44;86.37;97772.92;1708845;84;20860;-78
2021/07/30 00:16:49;;;;;;;13.00;7.97;;;;;;;15.44;86.05;97776.21;1708838;82;20884;-78
2021/07/30 00:19:15;;;;;;;11.45;8.08;;;;;;;15.42;86.40;97777.90;1708693;84;20960;-73
2021/07/30 00:21:41;;;;;;;12.00;7.22;;;;;;;15.41;87.13;97777.66;1696732;84;21181;-73
2021/07/30 00:24:07;;;;;;;11.78;7.12;;;;;;;15.36;87.13;97775.63;1708816;84;20876;-72
2021/07/30 00:26:33;;;;;;;13.20;7.28;;;;;;;15.34;86.73;97779.23;1708823;84;20876;-73
2021/07/30 00:28:59;;;;;;;13.75;7.53;;;;;;;15.34;87.14;97771.05;1696574;84;20864;-79
2021/07/30 00:31:25;;;;;;;14.60;7.37;;;;;;;15.31;86.96;97777.16;1708783;82;20972;-78
2021/07/30 00:33:51;;;;;;;13.03;7.75;;;;;;;15.28;87.62;97774.47;1708668;84;21788;-78
2021/07/30 00:36:17;;;;;;;13.28;7.40;;;;;;;15.29;87.30;97773.34;1708776;84;20963;-78
2021/07/30 00:38:43;;;;;;;10.25;8.10;;;;;;;15.29;86.87;97769.81;1708580;84;20931;-78
2021/07/30 00:41:09;;;;;;;9.95;6.85;;;;;;;15.29;87.37;97776.08;1708753;82;20995;-73
2021/07/30 00:43:35;;;;;;;12.65;7.35;;;;;;;15.30;86.62;97768.16;1708639;82;20912;-73
2021/07/30 00:46:01;;;;;;;10.08;7.60;;;;;;;15.26;85.71;97773.19;1708826;84;21155;-72
2021/07/30 00:48:29;;;;;;;9.28;7.55;;;;;;;15.21;86.25;97776.84;1708645;84;21451;-73
2021/07/30 00:50:55;;;;;;;13.40;8.30;;;;;;;15.19;86.69;97778.53;1696628;84;20928;-74
2021/07/30 00:53:21;;;;;;;12.70;7.55;;;;;;;15.20;87.26;97780.70;1708745;84;21400;-74
2021/07/30 00:55:48;;;;;;;10.20;6.95;;;;;;;15.18;86.84;97774.77;1708659;84;21038;-79
2021/07/30 00:58:15;;;;;;;14.73;7.97;;;;;;;15.22;86.56;97770.30;1708863;84;21665;-79
2021/07/30 01:00:41;;;;;;;11.45;7.85;;;;;;;15.20;86.27;97776.61;1708315;84;20960;-78
2021/07/30 01:03:10;;;;;;;9.93;7.62;;;;;;;15.18;85.93;97770.10;1708751;82;21019;-79
2021/07/30 01:05:36;;;;;;;;;;;;;;;15.14;86.19;97771.87;1711188;84;21003;-78
2021/07/30 01:08:03;;;;;;;11.73;6.87;;;;;;;15.13;85.82;97770.83;1708660;84;20144;-78
2021/07/30 01:10:30;;;;;;;11.78;6.50;;;;;;;15.08;85.37;97769.59;1708642;82;21139;-74
2021/07/30 01:12:57;;;;;;;10.30;6.47;;;;;;;15.08;84.74;97771.76;1708887;84;20920;-77
2021/07/30 01:15:23;;;;;;;12.65;7.45;;;;;;;15.03;85.81;97775.17;1709049;83;20976;-73
2021/07/30 01:17:50;;;;;;;11.38;7.95;;;;;;;15.00;87.06;97771.16;1708887;84;20999;-78
2021/07/30 01:20:16;;;;;;;9.38;6.42;;;;;;;15.06;87.11;97775.92;1708659;83;20924;-78
2021/07/30 01:22:57;;;;;;;9.75;7.72;;;;;;;15.07;86.70;97772.88;1708885;84;21181;-78
2021/07/30 01:25:25;;;;;;;12.30;7.67;;;;;;;15.10;86.54;97776.89;1708837;84;21405;-79
2021/07/30 01:27:51;;;;;;;10.55;8.03;;;;;;;15.09;86.16;97767.10;1708879;84;21393;-79
2021/07/30 01:30:19;;;;;;;12.60;7.42;;;;;;;15.09;86.02;97771.20;1708842;83;20999;-74
2021/07/30 01:32:45;;;;;;;11.73;8.68;;;;;;;15.05;86.61;97762.05;1709111;84;20913;-73
2021/07/30 01:35:11;;;;;;;9.65;6.55;;;;;;;14.99;86.83;97759.20;1708925;84;21326;-79
2021/07/30 01:37:38;;;;;;;13.10;6.95;;;;;;;14.99;86.00;97763.29;1708672;84;21392;-79
2021/07/30 01:40:05;;;;;;;10.90;7.15;;;;;;;14.96;86.27;97770.19;1708910;83;20876;-79
2021/07/30 01:42:31;;;;;;;13.28;7.28;;;;;;;14.97;86.78;97756.79;1708803;83;21003;-74
2021/07/30 01:44:57;;;;;;;10.32;7.03;;;;;;;14.99;88.34;97763.29;1709029;84;20962;-76
2021/07/30 01:47:23;;;;;;;12.73;7.53;;;;;;;15.04;88.63;97763.97;1696645;84;22040;-74
2021/07/30 01:49:49;;;;;;;10.48;6.97;;;;;;;15.09;88.25;97765.73;1708884;84;21004;-74
2021/07/30 01:52:16;;;;;;;11.15;8.30;;;;;;;15.10;88.29;97761.33;1708890;84;20928;-79
2021/07/30 01:54:44;;;;;;;10.48;7.83;;;;;;;15.14;88.12;97765.61;1708908;83;20967;-74
2021/07/30 01:57:10;;;;;;;12.35;7.10;;;;;;;15.15;87.85;97757.10;1709031;83;20924;-79
2021/07/30 01:59:36;;;;;;;10.28;7.20;;;;;;;15.18;87.41;97753.73;1708982;84;21010;-79
2021/07/30 02:02:03;;;;;;;15.98;6.80;;;;;;;15.20;87.06;97752.84;1708836;83;21063;-74
2021/07/30 02:04:29;;;;;;;10.40;7.25;;;;;;;15.18;86.89;97759.75;1696872;84;21038;-74
2021/07/30 02:06:55;;;;;;;12.33;8.23;;;;;;;15.19;86.50;97758.63;1708957;84;20944;-79
2021/07/30 02:09:21;;;;;;;10.32;6.70;;;;;;;15.13;86.20;97755.81;1709085;84;20833;-79
2021/07/30 02:11:51;;;;;;;12.93;8.38;;;;;;;15.07;86.35;97761.16;1708758;83;21015;-73
2021/07/30 02:14:15;;;;;;;12.68;8.33;;;;;;;15.03;86.23;97750.61;1708812;83;21004;-79
2021/07/30 02:16:46;;;;;;;11.48;7.87;;;;;;;14.99;86.99;97746.92;1708936;84;21471;-74
2021/07/30 02:19:13;;;;;;;13.40;7.62;;;;;;;14.99;87.16;97752.37;1708909;83;21027;-73
2021/07/30 02:21:39;;;;;;;10.05;7.10;;;;;;;14.99;86.42;97752.37;1708867;83;21444;-78
2021/07/30 02:24:06;;;;;;;11.20;7.12;;;;;;;14.95;86.42;97752.19;1709004;84;21058;-73
2021/07/30 02:26:32;;;;;;;12.60;6.75;;;;;;;14.97;86.78;97753.26;1708754;83;20960;-77
2021/07/30 02:28:58;;;;;;;14.95;6.58;;;;;;;14.95;86.21;97750.29;1708858;84;21007;-77
2021/07/30 02:31:24;;;;;;;9.53;6.72;;;;;;;14.92;86.52;97756.91;1708705;83;20829;-73
2021/07/30 02:33:50;;;;;;;11.85;6.58;;;;;;;14.91;86.34;97749.30;1708858;84;21066;-73
2021/07/30 02:36:16;;;;;;;10.30;7.25;;;;;;;14.93;86.15;97747.61;1708772;84;21322;-73
2021/07/30 02:38:42;;;;;;;13.58;7.58;;;;;;;14.93;86.65;97752.50;1708819;83;20974;-73
2021/07/30 02:41:08;;;;;;;12.82;7.10;;;;;;;14.90;86.24;97750.98;1708940;84;20959;-73
2021/07/30 02:43:34;;;;;;;14.38;7.83;;;;;;;14.82;86.28;97744.92;1709162;83;20964;-73
2021/07/30 02:46:00;;;;;;;12.07;7.12;;;;;;;14.75;86.36;97750.81;1709028;83;21526;-78
2021/07/30 02:48:26;;;;;;;10.93;6.55;;;;;;;14.73;86.08;97747.60;1709207;84;21056;-73
2021/07/30 02:50:52;;;;;;;13.08;6.85;;;;;;;14.66;86.89;97743.15;1709004;83;20888;-78
2021/07/30 02:53:18;;;;;;;9.78;6.70;;;;;;;14.67;87.76;97738.74;1708892;84;20959;-78
2021/07/30 02:55:46;;;;;;;9.95;7.47;;;;;;;14.74;87.62;97748.41;1709090;84;20892;-73
2021/07/30 02:58:13;;;;;;;19.77;7.85;;;;;;;14.80;86.62;97744.44;1709322;84;20920;-73
2021/07/30 03:00:39;;;;;;;11.80;7.45;;;;;;;14.82;86.98;97743.00;1708981;83;20987;-73
2021/07/30 03:03:05;;;;;;;9.38;6.92;;;;;;;14.89;86.73;97751.54;1708912;83;21341;-78
2021/07/30 03:05:31;;;;;;;10.25;6.90;;;;;;;14.98;86.21;97745.31;1709123;83;20892;-73
2021/07/30 03:07:57;;;;;;;12.10;6.15;;;;;;;15.05;86.06;97747.84;1709094;83;20999;-78
2021/07/30 03:10:23;;;;;;;12.55;7.10;;;;;;;15.06;85.31;97745.91;1709153;84;20994;-73
2021/07/30 03:12:49;;;;;;;11.33;7.22;;;;;;;15.03;84.97;97750.61;1708681;83;21389;-78
2021/07/30 03:15:15;;;;;;;10.85;6.92;;;;;;;14.99;85.70;97750.45;1709108;84;20909;-73
2021/07/30 03:17:41;;;;;;;11.97;8.08;;;;;;;15.07;84.97;97748.32;1708870;84;21385;-73
2021/07/30 03:20:08;;;;;;;9.88;7.30;;;;;;;15.04;85.71;97753.59;1709074;83;21558;-73
2021/07/30 03:22:34;;;;;;;16.15;7.80;;;;;;;15.10;85.04;97750.97;1685207;84;21015;-73
2021/07/30 03:25:00;;;;;;;10.50;6.92;;;;;;;15.16;84.59;97748.35;1709211;84;20996;-78
2021/07/30 03:27:26;;;;;;;9.63;7.53;;;;;;;15.18;84.28;97752.36;1709132;83;20908;-77
2021/07/30 03:29:52;;;;;;;13.15;7.15;;;;;;;15.11;84.41;97753.94;1709079;83;20975;-73
2021/07/30 03:32:18;;;;;;;12.23;6.65;;;;;;;15.05;84.79;97754.66;1709151;84;20947;-73
2021/07/30 03:34:46;;;;;;;9.90;6.33;;;;;;;15.04;85.02;97750.86;1708798;84;21491;-73
2021/07/30 03:37:12;;;;;;;11.12;6.22;;;;;;;15.00;84.84;97749.89;1709216;83;21338;-73
2021/07/30 03:39:39;;;;;;;12.13;6.75;;;;;;;15.00;85.18;97760.80;1709083;83;21419;-73
2021/07/30 03:42:06;;;;;;;11.68;7.17;;;;;;;15.00;85.03;97756.71;1709060;84;20968;-73
2021/07/30 03:44:32;;;;;;;12.03;7.30;;;;;;;14.99;85.77;97753.19;1709048;84;20976;-73
2021/07/30 03:46:58;;;;;;;12.78;7.05;;;;;;;15.04;85.08;97758.52;1709222;83;21014;-73
2021/07/30 03:49:24;;;;;;;13.68;7.90;;;;;;;15.08;84.67;97755.95;1709218;84;20919;-73
2021/07/30 03:51:50;;;;;;;12.20;7.75;;;;;;;15.10;85.02;97753.70;1708805;84;21011;-78
2021/07/30 03:54:19;;;;;;;14.78;7.80;;;;;;;15.16;84.39;97761.44;1709097;84;21051;-73
2021/07/30 03:56:45;;;;;;;;;;;;;;;15.22;84.32;97756.65;1711424;83;20905;-78
2021/07/30 03:59:11;;;;;;;9.25;6.87;;;;;;;15.24;85.08;97755.77;1709322;84;20186;-73
2021/07/30 04:01:37;;;;;;;13.43;8.00;;;;;;;15.32;84.06;97754.19;1708941;83;21104;-78
2021/07/30 04:04:04;;;;;;;21.33;7.92;;;;;;;15.38;83.91;97754.27;1708647;83;21487;-77
2021/07/30 04:06:29;;;;;;;9.50;6.75;;;;;;;15.47;84.05;97749.66;1709015;84;21019;-78
2021/07/30 04:08:55;;;;;;;11.68;6.62;;;;;;;15.52;83.90;97750.86;1708975;84;20860;-78
2021/07/30 04:11:21;;;;;;;10.38;6.55;;;;;;;15.62;83.16;97753.88;1708943;83;20983;-78
2021/07/30 04:13:47;;;;;;;10.85;6.50;;;;;;;15.63;82.89;97751.38;1708721;84;21155;-73
2021/07/30 04:16:14;;;;;;;12.68;6.60;;;;;;;15.63;82.86;97753.55;1708950;83;20931;-73
2021/07/30 04:18:40;;;;;;;16.30;7.50;;;;;;;15.62;83.03;97749.78;1708977;84;21486;-73
2021/07/30 04:21:06;;;;;;;12.07;7.40;;;;;;;15.77;82.81;97750.13;1708979;84;20824;-73
2021/07/30 04:23:36;;;;;;;10.23;6.90;;;;;;;15.88;82.72;97749.81;1708794;83;21455;-78
2021/07/30 04:26:02;;;;;;;10.45;6.78;;;;;;;16.01;82.70;97749.66;1708900;84;21793;-78
2021/07/30 04:28:28;;;;;;;10.15;8.13;;;;;;;16.13;82.20;97742.74;1708938;84;20868;-73
2021/07/30 04:30:54;;;;;;;13.28;7.10;;;;;;;16.18;82.43;97747.49;1709033;83;20976;-73
2021/07/30 04:33:20;;;;;;;14.58;7.33;;;;;;;16.38;81.17;97749.31;1708922;84;20915;-73
2021/07/30 04:35:45;;;;;;;13.62;9.38;;;;;;;16.39;81.13;97746.25;1709047;84;20856;-73
2021/07/30 04:38:11;;;;;;;10.60;7.25;;;;;;;16.51;81.43;97746.41;1708925;83;21823;-74
2021/07/30 04:40:38;;;;;;;14.80;7.28;;;;;;;16.67;81.14;97741.80;1696698;84;20872;-78
2021/07/30 04:43:04;;;;;;;11.80;7.55;;;;;;;16.82;80.57;97746.19;1708949;83;20960;-73
2021/07/30 04:45:32;;;;;;;10.65;7.35;;;;;;;16.98;80.21;97741.55;1708901;84;21004;-79
2021/07/30 04:47:58;;;;;;;8.87;6.57;;;;;;;17.07;79.68;97740.38;1709023;83;20982;-78
2021/07/30 04:50:24;;;;;;;10.78;7.30;;;;;;;17.19;78.88;97743.24;1709094;84;21328;-73
2021/07/30 04:52:55;;;;;;;12.98;6.95;;;;;;;17.22;78.61;97737.66;1708910;83;21612;-73
2021/07/30 04:55:21;;;;;;;14.00;6.90;;;;;;;17.22;78.48;97740.41;1708719;84;21420;-79
2021/07/30 04:57:47;;;;;;;10.23;7.05;;;;;;;17.22;78.58;97740.41;1709013;84;20871;-79
2021/07/30 05:00:14;;;;;;;12.45;6.70;;;;;;;17.35;78.45;97739.38;1709150;83;20899;-73
2021/07/30 05:02:40;;;;;;;11.15;6.85;;;;;;;17.45;78.50;97740.94;1708854;84;21047;-78
2021/07/30 05:05:06;;;;;;;10.00;7.45;;;;;;;17.59;78.13;97733.83;1708949;84;20856;-78
2021/07/30 05:07:32;;;;;;;11.55;7.40;;;;;;;17.76;77.22;97735.91;1708982;83;20924;-74
2021/07/30 05:09:58;;;;;;;13.38;6.80;;;;;;;17.82;77.17;97737.09;1708992;83;20903;-73
2021/07/30 05:12:24;;;;;;;16.52;7.28;;;;;;;17.93;77.43;97724.59;1696568;84;20928;-79
2021/07/30 05:14:51;;;;;;;9.60;6.87;;;;;;;18.07;77.11;97729.23;1708529;84;22071;-74
2021/07/30 05:17:17;;;;;;;11.38;6.42;;;;;;;18.16;76.17;97728.59;1708788;83;20995;-78
2021/07/30 05:19:43;;;;;;;9.35;7.00;;;;;;;18.24;76.00;97729.09;1708775;84;20962;-74
2021/07/30 05:22:09;;;;;;;9.58;6.83;;;;;;;18.30;76.59;97726.95;1708541;84;20824;-73
2021/07/30 05:24:37;;;;;;;10.10;7.00;;;;;;;18.41;76.10;97725.38;1708762;84;20887;-79
2021/07/30 05:27:05;;;;;;;8.88;6.62;;;;;;;18.57;75.49;97724.98;1708656;84;21750;-73
2021/07/30 05:29:31;;;;;;;10.60;6.80;;;;;;;18.76;74.95;97723.67;1696881;84;20988;-79
2021/07/30 05:31:57;;;;;;;12.25;7.35;;;;;;;18.76;74.95;97723.67;1708599;84;21248;-79
2021/07/30 05:34:24;;;;;;;10.90;7.87;;;;;;;18.95;74.34;97731.36;1708784;83;20919;-79
2021/07/30 05:36:50;;;;;;;9.20;6.12;;;;;;;19.07;74.61;97731.39;1708697;83;21026;-79
2021/07/30 05:39:15;;;;;;;11.50;7.28;;;;;;;19.27;73.40;97729.10;1708915;83;21080;-79
2021/07/30 05:41:42;;;;;;;9.33;6.35;;;;;;;19.37;73.10;97734.13;1708556;84;20871;-73
2021/07/30 05:44:07;;;;;;;12.05;6.87;;;;;;;19.52;72.55;97728.52;1708925;84;21078;-79
2021/07/30 05:46:37;;;;;;;10.98;6.70;;;;;;;19.67;72.40;97729.80;1708479;84;20978;-73
2021/07/30 05:49:03;;;;;;;10.75;6.22;;;;;;;19.83;71.54;97727.94;1696860;84;21423;-74
2021/07/30 05:51:29;;;;;;;7.47;6.08;;;;;;;19.97;71.47;97722.84;1708689;84;21145;-74
2021/07/30 05:53:55;;;;;;;10.88;6.85;;;;;;;20.15;70.95;97728.06;1708603;84;20863;-74
2021/07/30 05:56:21;;;;;;;9.95;7.03;;;;;;;20.17;69.50;97729.33;1708548;84;20959;-79
2021/07/30 05:58:47;;;;;;;10.25;7.00;;;;;;;20.11;70.16;97734.05;1708627;84;20880;-80
2021/07/30 06:01:13;;;;;;;10.03;7.37;;;;;;;20.12;70.66;97726.02;1708618;83;21569;-74
2021/07/30 06:03:40;;;;;;;7.03;6.20;;;;;;;20.29;70.10;97725.72;1696413;84;21305;-80
2021/07/30 06:06:06;;;;;;;9.25;6.05;;;;;;;20.36;70.13;97726.50;1708484;83;20925;-79
2021/07/30 06:08:32;;;;;;;7.40;5.90;;;;;;;20.45;70.69;97716.97;1708587;83;20911;-74
2021/07/30 06:10:58;;;;;;;7.22;5.58;;;;;;;20.71;70.76;97717.86;1708794;84;21452;-74
2021/07/30 06:13:24;;;;;;;9.50;6.62;;;;;;;20.95;70.51;97721.63;1708427;83;21522;-80
2021/07/30 06:15:50;;;;;;;8.63;6.67;;;;;;;21.15;70.13;97719.17;1708670;83;21385;-79
2021/07/30 06:18:16;;;;;;;12.93;6.87;;;;;;;21.26;69.75;97713.33;1708682;82;20907;-76
2021/07/30 06:20:42;;;;;;;11.48;7.05;;;;;;;21.26;69.76;97717.47;1708752;84;21594;-78
2021/07/30 06:23:08;;;;;;;8.78;6.78;;;;;;;21.25;68.91;97720.58;1708659;84;21028;-76
2021/07/30 06:25:34;;;;;;;8.33;6.47;;;;;;;21.40;69.93;97721.18;1708748;84;21010;-78
2021/07/30 06:28:01;;;;;;;11.45;6.12;;;;;;;21.52;69.29;97723.81;1708732;84;21169;-76
2021/07/30 06:30:27;;;;;;;8.90;5.75;;;;;;;21.76;68.28;97720.61;1708720;82;20998;-79
2021/07/30 06:32:53;;;;;;;7.45;5.25;;;;;;;21.96;67.23;97718.92;1708635;84;20954;-75
2021/07/30 06:35:20;;;;;;;10.20;6.90;;;;;;;21.93;66.09;97715.48;1708833;82;20977;-76
2021/07/30 06:37:46;;;;;;;9.43;5.45;;;;;;;22.04;65.73;97710.77;1708575;82;20956;-78
2021/07/30 06:40:13;;;;;;;6.70;5.40;;;;;;;22.04;64.61;97711.56;1708886;82;21333;-77
2021/07/30 06:42:39;;;;;;;11.15;5.85;;;;;;;22.22;65.02;97712.78;1708542;82;21016;-76
2021/07/30 06:45:06;;;;;;;8.15;6.05;;;;;;;22.48;65.23;97711.31;1708930;82;20900;-76
2021/07/30 06:47:36;;;;;;;13.10;6.55;;;;;;;22.57;64.99;97710.50;1708336;84;20932;-76
2021/07/30 06:50:06;;;;;;;7.80;5.50;;;;;;;22.55;65.09;97708.66;1708797;82;21023;-79
2021/07/30 06:52:32;;;;;;;7.37;5.47;;;;;;;22.71;65.78;97707.98;1708539;84;21308;-76
2021/07/30 06:54:58;;;;;;;8.85;5.10;;;;;;;23.06;64.84;97702.89;1708492;84;20903;-75
2021/07/30 06:57:24;;;;;;;7.80;5.35;;;;;;;23.34;63.60;97707.52;1708380;84;20952;-78
2021/07/30 06:59:50;;;;;;;11.88;5.03;;;;;;;23.50;61.29;97706.55;1708869;83;20943;-76
2021/07/30 07:02:16;;;;;;;9.13;5.58;;;;;;;23.70;61.78;97697.02;1708598;84;20924;-74
2021/07/30 07:04:42;;;;;;;7.00;4.62;;;;;;;23.84;60.71;97702.76;1708813;84;21428;-75
2021/07/30 07:07:08;;;;;;;6.03;4.70;;;;;;;23.91;60.16;97701.45;1708463;84;20848;-75
2021/07/30 07:09:34;;;;;;;6.40;4.97;;;;;;;24.30;59.28;97692.84;1708794;82;20895;-75
2021/07/30 07:12:04;;;;;;;8.15;5.70;;;;;;;24.61;59.12;97690.83;1708640;83;21485;-75
2021/07/30 07:14:30;;;;;;;10.00;5.20;;;;;;;24.89;59.08;97688.35;1709200;83;21401;-79
2021/07/30 07:16:55;;;;;;;9.55;5.17;;;;;;;25.15;58.62;97687.42;1708677;84;21145;-76
2021/07/30 07:19:22;;;;;;;7.78;4.50;;;;;;;25.37;57.81;97684.20;1709197;84;20841;-75
2021/07/30 07:21:50;;;;;;;7.05;5.00;;;;;;;25.48;56.48;97685.09;1708849;84;21495;-79
2021/07/30 07:24:16;;;;;;;6.03;5.23;;;;;;;25.48;56.41;97686.48;1709179;83;21429;-76
2021/07/30 07:26:42;;;;;;;7.12;4.78;;;;;;;25.56;55.02;97683.16;1708815;83;22046;-76
2021/07/30 07:29:08;;;;;;;5.62;4.85;;;;;;;25.85;54.13;97682.16;1709376;83;21085;-79
2021/07/30 07:31:34;;;;;;;10.63;4.78;;;;;;;26.31;53.02;97680.16;1709113;84;20887;-79
2021/07/30 07:34:00;;;;;;;6.08;5.08;;;;;;;26.78;53.15;97676.16;1709135;83;20963;-77
2021/07/30 07:36:26;;;;;;;6.22;4.55;;;;;;;27.15;51.61;97675.80;1709118;83;20837;-79
2021/07/30 07:38:52;;;;;;;6.37;5.42;;;;;;;26.92;48.66;97672.02;1709088;83;21027;-76
2021/07/30 07:41:18;;;;;;;9.75;5.05;;;;;;;27.54;49.93;97679.95;1709230;84;21163;-76
2021/07/30 07:43:44;;;;;;;5.05;4.55;;;;;;;27.97;48.26;97675.10;1708949;84;21518;-79
2021/07/30 07:46:10;;;;;;;6.67;4.72;;;;;;;28.36;48.78;97674.95;1709170;84;20844;-79
2021/07/30 07:48:36;;;;;;;9.53;4.30;;;;;;;29.08;46.76;97664.17;1709011;84;20983;-76
2021/07/30 07:51:01;;;;;;;5.10;4.20;;;;;;;29.09;46.91;97659.38;1709306;84;21597;-79
2021/07/30 07:53:27;;;;;;;6.28;4.20;;;;;;;29.67;44.26;97659.08;1709020;84;21335;-76
2021/07/30 07:56:03;;;;;;;4.80;4.20;;;;;;;29.90;43.65;97657.80;1709222;83;20887;-79
2021/07/30 07:58:30;;;;;;;6.87;4.72;;;;;;;30.14;43.62;97660.74;1708699;84;20971;-77
2021/07/30 08:00:56;;;;;;;6.95;4.50;;;;;;;30.30;42.90;97653.95;1709255;84;21440;-77
2021/07/30 08:03:22;;;;;;;5.00;4.42;;;;;;;30.19;43.87;97649.12;1709031;84;20880;-80
2021/07/30 08:05:48;;;;;;;7.08;4.55;;;;;;;30.62;43.06;97647.92;1709095;83;21215;-80
2021/07/30 08:08:14;;;;;;;6.45;5.00;;;;;;;30.84;41.52;97651.98;1706078;82;21889;-80
2021/07/30 08:10:40;;;;;;;6.33;4.50;;;;;;;31.39;40.03;97649.33;1713873;83;20906;-79
2021/07/30 08:13:06;;;;;;;6.25;4.87;;;;;;;31.54;38.45;97646.28;1710132;82;20934;-77
2021/07/30 08:15:32;;;;;;;4.87;4.37;;;;;;;31.90;39.81;97643.61;1698058;84;20855;-80
2021/07/30 08:17:58;;;;;;;7.70;4.47;;;;;;;32.60;39.70;97640.52;1697450;84;20971;-77
2021/07/30 08:20:24;;;;;;;6.50;4.28;;;;;;;32.55;37.62;97634.02;1697660;82;20926;-80
2021/07/30 08:22:50;;;;;;;5.72;4.70;;;;;;;33.07;38.32;97633.21;1698057;83;21431;-77
2021/07/30 08:25:16;;;;;;;8.60;4.85;;;;;;;33.42;37.57;97630.78;1698956;84;20835;-77
2021/07/30 08:27:41;;;;;;;8.10;4.60;;;;;;;33.73;37.23;97627.70;1698568;84;21343;-77
2021/07/30 08:30:09;;;;;;;6.55;4.22;;;;;;;33.86;36.26;97629.95;1699025;84;21966;-77
2021/07/30 08:32:35;;;;;;;4.95;4.22;;;;;;;33.68;35.51;97626.85;1699268;84;20922;-77
2021/07/30 08:35:01;;;;;;;6.85;4.22;;;;;;;34.37;35.60;97626.50;1699569;83;20949;-77
2021/07/30 08:37:27;;;;;;;5.80;3.67;;;;;;;34.74;34.61;97628.56;1698806;84;21399;-77
2021/07/30 08:39:53;;;;;;;5.90;3.83;;;;;;;35.09;33.62;97629.28;1698289;84;20878;-77
2021/07/30 08:42:19;;;;;;;8.13;4.08;;;;;;;35.33;31.22;97627.66;1699169;84;21222;-77
2021/07/30 08:44:46;;;;;;;5.60;4.20;;;;;;;35.52;32.20;97623.80;1699402;84;21415;-81
2021/07/30 08:47:13;;;;;;;6.10;4.35;;;;;;;34.72;30.89;97627.44;1699081;84;20982;-77
2021/07/30 08:49:39;;;;;;;5.15;4.53;;;;;;;33.99;32.41;97629.22;1679276;84;21045;-80
2021/07/30 08:52:10;;;;;;;5.53;4.22;;;;;;;34.73;32.54;97628.39;1699179;83;21328;-80
2021/07/30 08:54:37;;;;;;;4.90;3.77;;;;;;;34.74;32.36;97618.71;1699352;84;21293;-80
2021/07/30 08:57:10;;;;;;;4.83;4.30;;;;;;;35.48;31.58;97618.92;1699105;84;21121;-80
2021/07/30 08:59:39;;;;;;;4.75;3.52;;;;;;;36.21;30.96;97618.69;1699123;83;20967;-78
2021/07/30 09:02:07;;;;;;;6.28;3.58;;;;;;;37.02;27.83;97618.78;1699019;83;20982;-78
2021/07/30 09:04:33;;;;;;;6.25;3.67;;;;;;;37.51;26.38;97615.26;1699300;84;21483;-78
2021/07/30 09:07:01;;;;;;;3.72;3.17;;;;;;;37.72;25.78;97612.13;1699170;84;21996;-75
2021/07/30 09:09:27;;;;;;;5.25;3.37;;;;;;;37.36;26.79;97603.03;1699079;83;20939;-81
2021/07/30 09:11:55;;;;;;;4.12;3.42;;;;;;;37.48;26.94;97605.53;1699078;84;20978;-81
2021/07/30 09:14:41;;;;;;;3.37;2.77;;;;;;;38.10;25.84;97609.44;1707498;83;20946;-81
2021/07/30 09:17:07;;;;;;;2.90;2.58;;;;;;;38.08;24.98;97603.48;1708858;84;20970;-79
2021/07/30 09:19:33;;;;;;;4.25;3.80;;;;;;;37.35;26.21;97600.68;1707332;84;21446;-80
2021/07/30 09:22:08;;;;;;;6.22;4.03;;;;;;;38.09;24.90;97594.52;1708237;84;21171;-80
2021/07/30 09:24:40;;;;;;;4.95;4.42;;;;;;;38.11;26.24;97594.03;1708979;84;20977;-76
2021/07/30 09:27:12;;;;;;;6.92;4.22;;;;;;;36.68;29.08;97607.20;1707182;84;20939;-79
2021/07/30 09:29:39;;;;;;;5.80;4.33;;;;;;;36.52;28.91;97591.93;1709058;84;21061;-78
2021/07/30 09:32:09;;;;;;;10.60;5.30;;;;;;;36.18;29.16;97590.02;1709011;84;21953;-81
2021/07/30 09:34:41;;;;;;;6.37;4.72;;;;;;;34.93;30.07;97590.19;1708352;83;20958;-77
2021/07/30 09:37:09;;;;;;;5.28;4.28;;;;;;;36.22;29.63;97582.19;1706931;82;20942;-80
2021/07/30 09:39:42;;;;;;;5.80;4.00;;;;;;;38.00;27.37;97586.68;1706884;83;20973;-77
2021/07/30 09:42:12;;;;;;;7.05;4.42;;;;;;;36.11;29.28;97591.06;1706836;83;20990;-77
2021/07/30 09:44:54;;;;;;;4.95;4.30;;;;;;;34.51;31.26;97586.70;1707122;83;21135;-77
2021/07/30 09:47:24;;;;;;;7.50;4.58;;;;;;;32.51;34.32;97583.64;1706797;83;20966;-80
2021/07/30 09:50:04;;;;;;;7.17;4.92;;;;;;;30.52;38.14;97585.98;1706917;83;20985;-79
2021/07/30 09:52:33;;;;;;;7.37;4.92;;;;;;;29.59;39.05;97573.83;1706687;84;21383;-79
2021/07/30 09:55:06;;;;;;;6.92;4.90;;;;;;;29.59;39.05;97573.83;1707061;83;20986;-79
2021/07/30 09:57:40;;;;;;;5.67;4.42;;;;;;;30.33;38.85;97570.06;1707000;83;21116;-77
2021/07/30 10:00:10;;;;;;;8.38;5.37;;;;;;;30.17;39.03;97569.13;1706866;83;21442;-80
2021/07/30 10:02:37;;;;;;;6.97;4.92;;;;;;;31.44;37.13;97559.24;1706761;83;21347;-80
2021/07/30 10:05:06;;;;;;;9.68;4.80;;;;;;;32.96;33.37;97544.31;1707163;83;21018;-77
2021/07/30 10:07:33;;;;;;;7.22;4.67;;;;;;;32.96;33.37;97544.31;1706814;83;20948;-80
2021/07/30 10:10:08;;;;;;;6.23;4.77;;;;;;;33.96;33.19;97555.66;1707150;83;21034;-77
2021/07/30 10:12:36;;;;;;;4.97;4.20;;;;;;;35.02;31.34;97554.30;1705580;83;22092;-77
2021/07/30 10:15:03;;;;;;;8.05;4.95;;;;;;;36.73;27.43;97546.53;1696814;83;21010;-81
2021/07/30 10:17:31;;;;;;;5.70;4.60;;;;;;;35.12;29.33;97546.11;1679615;84;20982;-77
2021/07/30 10:20:06;;;;;;;11.80;5.72;;;;;;;33.88;32.22;97546.02;1699341;84;21041;-78
2021/07/30 10:22:55;;;;;;;5.10;4.60;;;;;;;35.11;29.58;97540.94;1698984;84;21131;-80
2021/07/30 10:25:28;;;;;;;5.22;4.40;;;;;;;36.22;28.96;97541.30;1699232;84;20971;-81
2021/07/30 10:28:26;;;;;;;4.95;4.17;;;;;;;36.76;27.06;97535.73;1705076;84;20950;-77
2021/07/30 10:30:59;;;;;;;5.80;4.05;;;;;;;37.55;27.29;97533.17;1699311;83;21015;-77
2021/07/30 10:33:34;;;;;;;6.65;4.70;;;;;;;34.72;31.21;97529.77;1699374;83;21345;-82
2021/07/30 10:36:02;;;;;;;8.65;4.28;;;;;;;34.13;32.11;97534.66;1702335;83;22005;-79
2021/07/30 10:38:28;;;;;;;;;;;;;;;32.89;33.99;97539.67;1701366;83;21010;-76
2021/07/30 10:41:11;;;;;;;6.65;4.83;;;;;;;31.36;36.84;97533.22;1699167;83;20216;-80
2021/07/30 10:44:05;;;;;;;7.05;5.35;;;;;;;30.35;39.20;97526.35;1699065;83;21058;-79
2021/07/30 10:46:31;;;;;;;7.80;5.35;;;;;;;30.38;39.63;97521.91;1699017;84;20983;-76
2021/07/30 10:48:57;;;;;;;7.22;4.47;;;;;;;30.88;37.76;97522.70;1698856;82;21017;-76
2021/07/30 10:51:31;;;;;;;5.50;4.83;;;;;;;30.64;38.31;97506.31;1680348;84;20890;-80
2021/07/30 10:54:01;;;;;;;9.43;5.37;;;;;;;30.52;38.89;97516.89;1699177;83;21438;-77
2021/07/30 10:56:42;;;;;;;6.95;4.97;;;;;;;29.76;40.59;97520.56;1699296;84;20990;-77
2021/07/30 10:59:08;;;;;;;8.08;5.08;;;;;;;32.33;36.06;97507.59;1699652;83;20972;-80
2021/07/30 11:01:46;;;;;;;5.55;4.35;;;;;;;32.83;33.66;97508.55;1699099;83;21122;-80
2021/07/30 11:04:12;;;;;;;15.32;5.37;;;;;;;32.08;35.63;97505.95;1699436;84;21339;-80
2021/07/30 11:06:47;;;;;;;6.92;4.58;;;;;;;32.46;34.60;97502.06;1698201;83;21513;-80
2021/07/30 11:09:17;;;;;;;8.80;4.47;;;;;;;34.85;31.73;97505.02;1699371;83;20979;-77
2021/07/30 11:11:49;;;;;;;9.48;4.75;;;;;;;35.94;29.20;97500.92;1699104;83;20950;-80
2021/07/30 11:14:35;;;;;;;5.50;4.45;;;;;;;37.68;27.46;97501.27;1705484;83;21068;-81
2021/07/30 11:17:05;;;;;;;5.45;3.80;;;;;;;39.07;26.72;97486.72;1707057;83;21093;-80
2021/07/30 11:19:47;;;;;;;7.17;4.30;;;;;;;40.52;24.92;97494.24;1706899;83;20946;-80
2021/07/30 11:22:17;;;;;;;5.37;3.72;;;;;;;41.51;23.87;97495.25;1706847;84;21343;-78
2021/07/30 11:24:48;;;;;;;4.95;4.33;;;;;;;41.15;21.60;97484.63;1706018;83;21045;-78
2021/07/30 11:27:16;;;;;;;7.40;4.10;;;;;;;41.03;23.07;97482.30;1707118;83;21137;-77
2021/07/30 11:29:52;;;;;;;7.10;3.90;;;;;;;39.98;24.57;97489.33;1707000;83;20966;-81
2021/07/30 11:32:19;;;;;;;6.03;4.28;;;;;;;38.58;25.12;97487.33;1706919;82;21525;-77